createdAt,value
2018-11-11T00:00:36.112Z,100736.00
2018-11-11T00:02:39.460Z,100733.00
2018-11-11T00:04:42.767Z,100733.00
2018-11-11T00:06:46.005Z,100729.00
2018-11-11T00:08:49.303Z,100722.00
2018-11-11T00:10:52.549Z,100725.00
2018-11-11T00:12:55.904Z,100725.00
2018-11-11T00:14:59.113Z,100729.00
2018-11-11T00:17:02.368Z,100724.00
2018-11-11T00:19:06.310Z,100725.00
2018-11-11T00:21:09.550Z,100724.00
2018-11-11T00:23:13.165Z,100724.00
2018-11-11T00:25:16.390Z,100722.00
2018-11-11T00:27:19.740Z,100720.00
2018-11-11T00:29:23.006Z,100723.00
2018-11-11T00:31:26.230Z,100721.00
2018-11-11T00:33:29.625Z,100721.00
2018-11-11T00:35:33.223Z,100726.00
2018-11-11T00:37:36.740Z,100729.00
2018-11-11T00:39:39.964Z,100734.00
2018-11-11T00:41:43.276Z,100733.00
2018-11-11T00:43:46.520Z,100735.00
2018-11-11T00:45:49.743Z,100734.00
2018-11-11T00:47:52.997Z,100735.00
2018-11-11T00:49:56.370Z,100732.00
2018-11-11T00:51:59.667Z,100733.00
2018-11-11T00:54:02.975Z,100730.00
2018-11-11T00:56:06.279Z,100725.00
2018-11-11T00:58:09.492Z,100729.00
2018-11-11T01:00:15.639Z,100719.00
2018-11-11T01:02:19.135Z,100721.00
2018-11-11T01:04:22.323Z,100725.00
2018-11-11T01:06:25.543Z,100727.00
2018-11-11T01:08:28.809Z,100733.00
2018-11-11T01:10:32.034Z,100743.00
2018-11-11T01:12:35.414Z,100743.00
2018-11-11T01:14:38.656Z,100741.00
2018-11-11T01:16:41.886Z,100742.00
2018-11-11T01:18:45.348Z,100743.00
2018-11-11T01:20:48.579Z,100741.00
2018-11-11T01:22:51.793Z,100745.00
2018-11-11T01:24:55.039Z,100743.00
2018-11-11T01:26:58.244Z,100737.00
2018-11-11T01:29:01.513Z,100734.00
2018-11-11T01:31:05.510Z,100734.00
2018-11-11T01:33:08.764Z,100731.00
2018-11-11T01:35:13.089Z,100727.00
2018-11-11T01:37:16.324Z,100726.00
2018-11-11T01:39:19.624Z,100729.00
2018-11-11T01:41:22.969Z,100734.00
2018-11-11T01:43:26.197Z,100734.00
2018-11-11T01:45:29.487Z,100733.00
2018-11-11T01:47:32.737Z,100733.00
2018-11-11T01:49:35.972Z,100733.00
2018-11-11T01:51:39.268Z,100735.00
2018-11-11T01:53:42.959Z,100728.00
2018-11-11T01:55:46.232Z,100730.00
2018-11-11T01:57:49.432Z,100735.00
2018-11-11T01:59:52.700Z,100736.00
2018-11-11T02:01:55.860Z,100740.00
2018-11-11T02:03:59.023Z,100736.00
2018-11-11T02:06:02.218Z,100730.00
2018-11-11T02:08:05.834Z,100732.00
2018-11-11T02:10:09.833Z,100739.00
2018-11-11T02:12:13.057Z,100747.00
2018-11-11T02:14:16.279Z,100745.00
2018-11-11T02:16:19.459Z,100749.00
2018-11-11T02:18:22.819Z,100746.00
2018-11-11T02:20:26.053Z,100746.00
2018-11-11T02:22:29.276Z,100744.00
2018-11-11T02:24:32.550Z,100745.00
2018-11-11T02:26:35.758Z,100742.00
2018-11-11T02:28:38.979Z,100741.00
2018-11-11T02:30:42.487Z,100747.00
2018-11-11T02:32:45.854Z,100745.00
2018-11-11T02:34:49.055Z,100742.00
2018-11-11T02:36:52.263Z,100749.00
2018-11-11T02:38:55.481Z,100746.00
2018-11-11T02:40:58.671Z,100746.00
2018-11-11T02:43:01.829Z,100744.00
2018-11-11T02:45:07.387Z,100741.00
2018-11-11T02:47:10.557Z,100734.00
2018-11-11T02:49:14.052Z,100738.00
2018-11-11T02:51:17.197Z,100737.00
2018-11-11T02:53:20.410Z,100731.00
2018-11-11T02:55:23.909Z,100736.00
2018-11-11T02:57:27.164Z,100737.00
2018-11-11T02:59:30.345Z,100736.00
2018-11-11T03:01:33.587Z,100741.00
2018-11-11T03:03:36.797Z,100754.00
2018-11-11T03:05:39.976Z,100757.00
2018-11-11T03:07:43.353Z,100764.00
2018-11-11T03:09:46.651Z,100758.00
2018-11-11T03:11:49.849Z,100757.00
2018-11-11T03:13:53.149Z,100759.00
2018-11-11T03:15:56.399Z,100754.00
2018-11-11T03:17:59.635Z,100756.00
2018-11-11T03:20:02.959Z,100749.00
2018-11-11T03:22:06.241Z,100740.00
2018-11-11T03:24:09.415Z,100731.00
2018-11-11T03:26:13.857Z,100729.00
2018-11-11T03:28:17.023Z,100740.00
2018-11-11T03:30:20.245Z,100744.00
2018-11-11T03:32:23.519Z,100749.00
2018-11-11T03:34:26.730Z,100748.00
2018-11-11T03:36:29.991Z,100747.00
2018-11-11T03:38:33.248Z,100754.00
2018-11-11T03:40:36.447Z,100754.00
2018-11-11T03:42:39.763Z,100758.00
2018-11-11T03:44:42.999Z,100764.00
2018-11-11T03:46:46.283Z,100760.00
2018-11-11T03:48:49.560Z,100758.00
2018-11-11T03:50:52.789Z,100763.00
2018-11-11T03:52:57.170Z,100770.00
2018-11-11T03:55:00.391Z,100770.00
2018-11-11T03:57:03.676Z,100776.00
2018-11-11T03:59:06.978Z,100779.00
2018-11-11T04:01:10.528Z,100781.00
2018-11-11T04:03:13.705Z,100779.00
2018-11-11T04:05:17.564Z,100780.00
2018-11-11T04:07:20.775Z,100775.00
2018-11-11T04:09:24.933Z,100777.00
2018-11-11T04:11:28.152Z,100787.00
2018-11-11T04:13:31.359Z,100786.00
2018-11-11T04:15:34.590Z,100787.00
2018-11-11T04:17:38.245Z,100782.00
2018-11-11T04:19:41.418Z,100779.00
2018-11-11T04:21:44.690Z,100781.00
2018-11-11T04:23:47.859Z,100787.00
2018-11-11T04:25:51.213Z,100788.00
2018-11-11T04:27:54.416Z,100778.00
2018-11-11T04:29:57.608Z,100783.00
2018-11-11T04:32:00.731Z,100783.00
2018-11-11T04:34:04.285Z,100785.00
2018-11-11T04:36:07.782Z,100777.00
2018-11-11T04:38:10.968Z,100777.00
2018-11-11T04:40:14.183Z,100779.00
2018-11-11T04:42:17.384Z,100777.00
2018-11-11T04:44:20.558Z,100772.00
2018-11-11T04:46:23.777Z,100774.00
2018-11-11T04:48:26.989Z,100780.00
2018-11-11T04:50:30.157Z,100788.00
2018-11-11T04:52:33.349Z,100791.00
2018-11-11T04:54:36.671Z,100789.00
2018-11-11T04:56:39.953Z,100791.00
2018-11-11T04:58:43.208Z,100792.00
2018-11-11T05:00:46.500Z,100796.00
2018-11-11T05:02:49.712Z,100794.00
2018-11-11T05:04:52.859Z,100787.00
2018-11-11T05:06:56.090Z,100791.00
2018-11-11T05:08:59.354Z,100788.00
2018-11-11T05:11:02.535Z,100800.00
2018-11-11T05:13:05.695Z,100794.00
2018-11-11T05:15:10.158Z,100785.00
2018-11-11T05:17:13.357Z,100788.00
2018-11-11T05:19:16.485Z,100787.00
2018-11-11T05:21:19.673Z,100789.00
2018-11-11T05:23:23.277Z,100793.00
2018-11-11T05:25:26.416Z,100796.00
2018-11-11T05:27:29.578Z,100796.00
2018-11-11T05:29:32.853Z,100799.00
2018-11-11T05:31:35.996Z,100796.00
2018-11-11T05:33:39.248Z,100802.00
2018-11-11T05:35:42.409Z,100800.00
2018-11-11T05:37:45.668Z,100797.00
2018-11-11T05:39:48.936Z,100794.00
2018-11-11T05:41:52.131Z,100802.00
2018-11-11T05:43:55.312Z,100802.00
2018-11-11T05:45:58.872Z,100801.00
2018-11-11T05:48:02.078Z,100799.00
2018-11-11T05:50:07.212Z,100797.00
2018-11-11T05:52:10.776Z,100796.00
2018-11-11T05:54:14.009Z,100790.00
2018-11-11T05:56:17.182Z,100794.00
2018-11-11T05:58:20.568Z,100797.00
2018-11-11T06:00:23.760Z,100794.00
2018-11-11T06:02:27.029Z,100795.00
2018-11-11T06:04:30.229Z,100799.00
2018-11-11T06:06:33.416Z,100803.00
2018-11-11T06:08:36.597Z,100805.00
2018-11-11T06:10:39.812Z,100806.00
2018-11-11T06:12:43.002Z,100803.00
2018-11-11T06:14:46.217Z,100799.00
2018-11-11T06:16:49.459Z,100805.00
2018-11-11T06:18:52.679Z,100803.00
2018-11-11T06:20:55.886Z,100805.00
2018-11-11T06:22:59.132Z,100811.00
2018-11-11T06:25:05.225Z,100812.00
2018-11-11T06:27:08.461Z,100802.00
2018-11-11T06:29:11.664Z,100803.00
2018-11-11T06:31:14.892Z,100806.00
2018-11-11T06:33:19.643Z,100811.00
2018-11-11T06:35:23.032Z,100807.00
2018-11-11T06:37:26.413Z,100809.00
2018-11-11T06:39:29.636Z,100802.00
2018-11-11T06:41:32.900Z,100801.00
2018-11-11T06:43:36.106Z,100794.00
2018-11-11T06:45:39.369Z,100793.00
2018-11-11T06:47:43.451Z,100792.00
2018-11-11T06:49:46.753Z,100785.00
2018-11-11T06:51:49.988Z,100783.00
2018-11-11T06:53:53.315Z,100780.00
2018-11-11T06:55:56.547Z,100779.00
2018-11-11T06:57:59.861Z,100789.00
2018-11-11T07:00:03.377Z,100797.00
2018-11-11T07:02:06.600Z,100793.00
2018-11-11T07:04:09.832Z,100784.00
2018-11-11T07:06:13.025Z,100775.00
2018-11-11T07:08:16.312Z,100765.00
2018-11-11T07:10:19.587Z,100765.00
2018-11-11T07:12:22.941Z,100769.00
2018-11-11T07:14:26.187Z,100789.00
2018-11-11T07:16:29.458Z,100787.00
2018-11-11T07:18:32.739Z,100777.00
2018-11-11T07:20:35.921Z,100766.00
2018-11-11T07:22:39.108Z,100765.00
2018-11-11T07:24:42.333Z,100760.00
2018-11-11T07:26:45.657Z,100763.00
2018-11-11T07:28:48.868Z,100778.00
2018-11-11T07:30:52.146Z,100804.00
2018-11-11T07:32:55.269Z,100787.00
2018-11-11T07:34:58.494Z,100799.00
2018-11-11T07:37:01.619Z,100789.00
2018-11-11T07:39:10.578Z,100793.00
2018-11-11T07:41:14.609Z,100795.00
2018-11-11T07:43:18.713Z,100799.00
2018-11-11T07:45:23.041Z,100798.00
2018-11-11T07:47:27.108Z,100795.00
2018-11-11T07:49:30.773Z,100776.00
2018-11-11T07:51:35.262Z,100777.00
2018-11-11T07:53:39.361Z,100780.00
2018-11-11T07:55:43.067Z,100786.00
2018-11-11T07:57:46.639Z,100783.00
2018-11-11T07:59:49.868Z,100781.00
2018-11-11T08:01:53.101Z,100782.00
2018-11-11T08:03:56.340Z,100779.00
2018-11-11T08:06:01.476Z,100788.00
2018-11-11T08:08:05.165Z,100785.00
2018-11-11T08:10:25.518Z,100785.00
2018-11-11T08:12:28.758Z,100792.00
2018-11-11T08:14:31.951Z,100811.00
2018-11-11T08:16:35.175Z,100818.00
2018-11-11T08:18:38.414Z,100817.00
2018-11-11T08:20:41.576Z,100818.00
2018-11-11T08:22:44.734Z,100804.00
2018-11-11T08:24:48.126Z,100806.00
2018-11-11T08:26:51.664Z,100815.00
2018-11-11T08:28:55.372Z,100814.00
2018-11-11T08:30:58.729Z,100824.00
2018-11-11T08:33:02.018Z,100805.00
2018-11-11T08:35:06.345Z,100803.00
2018-11-11T08:37:10.041Z,100805.00
2018-11-11T08:39:14.392Z,100823.00
2018-11-11T08:41:17.573Z,100829.00
2018-11-11T08:43:21.152Z,100836.00
2018-11-11T08:45:24.352Z,100823.00
2018-11-11T08:47:27.745Z,100810.00
2018-11-11T08:49:31.029Z,100820.00
2018-11-11T08:51:34.246Z,100824.00
2018-11-11T08:53:37.451Z,100835.00
2018-11-11T08:55:40.611Z,100837.00
2018-11-11T08:57:43.895Z,100831.00
2018-11-11T08:59:47.436Z,100829.00
2018-11-11T09:01:50.602Z,100813.00
2018-11-11T09:03:53.889Z,100810.00
2018-11-11T09:05:57.045Z,100818.00
2018-11-11T09:08:00.179Z,100830.00
2018-11-11T09:10:03.541Z,100836.00
2018-11-11T09:12:06.762Z,100837.00
2018-11-11T09:14:09.891Z,100834.00
2018-11-11T09:16:13.031Z,100840.00
2018-11-11T09:18:16.400Z,100850.00
2018-11-11T09:20:19.517Z,100851.00
2018-11-11T09:22:22.888Z,100854.00
2018-11-11T09:24:26.105Z,100853.00
2018-11-11T09:26:29.263Z,100860.00
2018-11-11T09:28:32.412Z,100866.00
2018-11-11T09:30:35.891Z,100869.00
2018-11-11T09:32:39.235Z,100860.00
2018-11-11T09:34:42.394Z,100863.00
2018-11-11T09:36:45.682Z,100880.00
2018-11-11T09:38:49.083Z,100867.00
2018-11-11T09:40:52.449Z,100855.00
2018-11-11T09:42:55.675Z,100852.00
2018-11-11T09:44:58.896Z,100853.00
2018-11-11T09:47:02.634Z,100857.00
2018-11-11T09:49:05.859Z,100859.00
2018-11-11T09:51:09.215Z,100858.00
2018-11-11T09:53:12.877Z,100870.00
2018-11-11T09:55:16.094Z,100869.00
2018-11-11T09:57:19.421Z,100877.00
2018-11-11T09:59:22.648Z,100872.00
2018-11-11T10:01:26.289Z,100871.00
2018-11-11T10:03:34.150Z,100875.00
2018-11-11T10:05:45.590Z,100869.00
2018-11-11T10:07:54.356Z,100886.00
2018-11-11T10:10:02.861Z,100887.00
2018-11-11T10:12:12.543Z,100875.00
2018-11-11T10:14:20.094Z,100869.00
2018-11-11T10:16:31.609Z,100881.00
2018-11-11T10:18:40.264Z,100888.00
2018-11-11T10:22:51.698Z,100903.00
2018-11-11T10:25:01.412Z,100904.00
2018-11-11T10:27:12.812Z,100908.00
2018-11-11T10:29:19.181Z,100909.00
2018-11-11T10:31:27.242Z,100912.00
2018-11-11T10:33:36.095Z,100916.00
2018-11-11T10:35:44.471Z,100920.00
2018-11-11T10:37:55.043Z,100926.00
2018-11-11T10:41:06.527Z,100912.00
2018-11-11T10:43:29.370Z,100922.00
2018-11-11T10:45:52.271Z,100926.00
2018-11-11T10:48:01.406Z,100928.00
2018-11-11T10:50:07.156Z,100933.00
2018-11-11T10:52:10.344Z,100941.00
2018-11-11T10:54:13.584Z,100936.00
2018-11-11T10:56:16.777Z,100936.00
2018-11-11T10:58:20.008Z,100941.00
2018-11-11T11:00:27.129Z,100941.00
2018-11-11T11:02:36.064Z,100938.00
2018-11-11T11:04:44.884Z,100951.00
2018-11-11T11:06:53.930Z,100951.00
2018-11-11T11:09:03.051Z,100954.00
2018-11-11T11:11:06.317Z,100947.00
2018-11-11T11:13:09.575Z,100948.00
2018-11-11T11:15:12.797Z,100951.00
2018-11-11T11:17:16.008Z,100960.00
2018-11-11T11:19:19.227Z,100959.00
2018-11-11T11:21:22.439Z,100949.00
2018-11-11T11:23:25.596Z,100949.00
2018-11-11T11:25:28.821Z,100943.00
2018-11-11T11:27:31.981Z,100938.00
2018-11-11T11:29:35.365Z,100934.00
2018-11-11T11:31:38.544Z,100935.00
2018-11-11T11:33:41.774Z,100951.00
2018-11-11T11:35:45.023Z,100942.00
2018-11-11T11:37:48.261Z,100946.00
2018-11-11T11:39:51.456Z,100943.00
2018-11-11T11:41:54.639Z,100946.00
2018-11-11T11:43:58.156Z,100951.00
2018-11-11T11:46:01.328Z,100934.00
2018-11-11T11:48:04.653Z,100946.00
2018-11-11T11:50:10.049Z,100933.00
2018-11-11T11:52:13.221Z,100931.00
2018-11-11T11:54:16.392Z,100918.00
2018-11-11T11:56:19.615Z,100908.00
2018-11-11T11:58:30.438Z,100906.00
2018-11-11T12:00:33.590Z,100913.00
2018-11-11T12:02:37.175Z,100897.00
2018-11-11T12:04:40.540Z,100893.00
2018-11-11T12:06:43.684Z,100902.00
2018-11-11T12:08:47.037Z,100906.00
2018-11-11T12:10:50.100Z,100915.00
2018-11-11T12:12:53.282Z,100914.00
2018-11-11T12:14:56.760Z,100908.00
2018-11-11T12:17:00.023Z,100897.00
2018-11-11T12:19:03.063Z,100910.00
2018-11-11T12:21:06.270Z,100910.00
2018-11-11T12:23:09.834Z,100914.00
2018-11-11T12:25:13.084Z,100918.00
2018-11-11T12:27:16.365Z,100914.00
2018-11-11T12:29:19.487Z,100915.00
2018-11-11T12:31:22.690Z,100910.00
2018-11-11T12:33:25.935Z,100905.00
2018-11-11T12:35:29.149Z,100908.00
2018-11-11T12:37:32.303Z,100902.00
2018-11-11T12:39:35.593Z,100898.00
2018-11-11T12:41:38.797Z,100895.00
2018-11-11T12:43:41.959Z,100897.00
2018-11-11T12:45:45.398Z,100900.00
2018-11-11T12:47:48.700Z,100899.00
2018-11-11T12:49:51.801Z,100893.00
2018-11-11T12:51:54.996Z,100895.00
2018-11-11T12:53:58.132Z,100897.00
2018-11-11T12:56:01.226Z,100890.00
2018-11-11T12:58:05.115Z,100898.00
2018-11-11T13:00:10.629Z,100895.00
2018-11-11T13:02:13.906Z,100887.00
2018-11-11T13:04:17.102Z,100873.00
2018-11-11T13:06:20.234Z,100877.00
2018-11-11T13:08:23.467Z,100867.00
2018-11-11T13:10:26.568Z,100870.00
2018-11-11T13:12:30.288Z,100883.00
2018-11-11T13:14:33.264Z,100892.00
2018-11-11T13:16:36.371Z,100884.00
2018-11-11T13:18:39.616Z,100894.00
2018-11-11T13:20:42.745Z,100895.00
2018-11-11T13:22:45.971Z,100900.00
2018-11-11T13:24:49.155Z,100909.00
2018-11-11T13:26:52.270Z,100913.00
2018-11-11T13:28:55.419Z,100918.00
2018-11-11T13:30:58.564Z,100919.00
2018-11-11T13:33:01.674Z,100926.00
2018-11-11T13:35:06.404Z,100924.00
2018-11-11T13:37:09.532Z,100925.00
2018-11-11T13:39:13.418Z,100929.00
2018-11-11T13:41:16.576Z,100934.00
2018-11-11T13:43:19.727Z,100931.00
2018-11-11T13:45:22.907Z,100933.00
2018-11-11T13:47:26.063Z,100936.00
2018-11-11T13:49:29.130Z,100931.00
2018-11-11T13:51:32.295Z,100931.00
2018-11-11T13:53:35.440Z,100940.00
2018-11-11T13:55:38.551Z,100942.00
2018-11-11T13:57:42.427Z,100944.00
2018-11-11T13:59:45.546Z,100953.00
2018-11-11T14:01:48.679Z,100947.00
2018-11-11T14:03:51.826Z,100954.00
2018-11-11T14:05:54.963Z,100956.00
2018-11-11T14:07:58.060Z,100959.00
2018-11-11T14:10:01.146Z,100964.00
2018-11-11T14:12:04.566Z,100973.00
2018-11-11T14:14:08.111Z,100974.00
2018-11-11T14:16:11.217Z,100975.00
2018-11-11T14:18:14.542Z,100978.00
2018-11-11T14:20:19.017Z,100980.00
2018-11-11T14:22:22.158Z,100984.00
2018-11-11T14:24:25.318Z,100981.00
2018-11-11T14:26:28.585Z,100985.00
2018-11-11T14:28:31.628Z,100987.00
2018-11-11T14:30:34.761Z,100992.00
2018-11-11T14:32:38.155Z,100994.00
2018-11-11T14:34:41.317Z,100996.00
2018-11-11T14:36:44.474Z,101001.00
2018-11-11T14:38:47.594Z,101004.00
2018-11-11T14:40:50.706Z,101007.00
2018-11-11T14:42:53.821Z,101011.00
2018-11-11T14:44:57.028Z,101013.00
2018-11-11T14:47:00.125Z,101012.00
2018-11-11T14:49:03.318Z,101017.00
2018-11-11T14:51:06.480Z,101017.00
2018-11-11T14:53:09.580Z,101014.00
2018-11-11T14:55:16.525Z,101011.00
2018-11-11T14:57:19.613Z,101006.00
2018-11-11T14:59:22.719Z,101002.00
2018-11-11T15:01:25.807Z,100996.00
2018-11-11T15:03:28.922Z,100995.00
2018-11-11T15:05:32.505Z,100988.00
2018-11-11T15:07:35.671Z,100996.00
2018-11-11T15:09:38.801Z,100994.00
2018-11-11T15:11:41.973Z,100996.00
2018-11-11T15:13:45.105Z,100995.00
2018-11-11T15:15:48.284Z,100989.00
2018-11-11T15:17:52.215Z,100991.00
2018-11-11T15:19:55.923Z,100987.00
2018-11-11T15:21:58.885Z,100983.00
2018-11-11T15:24:02.048Z,100984.00
2018-11-11T15:26:05.850Z,100980.00
2018-11-11T15:28:09.019Z,100987.00
2018-11-11T15:30:14.175Z,100989.00
2018-11-11T15:32:17.320Z,100993.00
2018-11-11T15:34:20.430Z,100995.00
2018-11-11T15:36:23.556Z,101000.00
2018-11-11T15:38:26.686Z,101004.00
2018-11-11T15:40:32.165Z,101010.00
2018-11-11T15:42:35.416Z,101021.00
2018-11-11T15:44:38.575Z,101018.00
2018-11-11T15:46:41.699Z,101022.00
2018-11-11T15:48:44.911Z,101026.00
2018-11-11T15:50:48.081Z,101034.00
2018-11-11T15:52:55.510Z,101033.00
2018-11-11T15:54:58.787Z,101032.00
2018-11-11T15:57:01.898Z,101046.00
2018-11-11T15:59:05.240Z,101038.00
2018-11-11T16:01:08.334Z,101037.00
2018-11-11T16:03:11.449Z,101045.00
2018-11-11T16:05:15.254Z,101043.00
2018-11-11T16:07:18.364Z,101043.00
2018-11-11T16:09:21.527Z,101038.00
2018-11-11T16:11:25.045Z,101041.00
2018-11-11T16:13:28.188Z,101040.00
2018-11-11T16:15:36.734Z,101037.00
2018-11-11T16:17:40.661Z,101037.00
2018-11-11T16:19:43.856Z,101047.00
2018-11-11T16:21:47.030Z,101045.00
2018-11-11T16:23:50.239Z,101036.00
2018-11-11T16:25:53.416Z,101035.00
2018-11-11T16:27:56.712Z,101036.00
2018-11-11T16:29:59.883Z,101040.00
2018-11-11T16:32:03.318Z,101041.00
2018-11-11T16:34:07.401Z,101048.00
2018-11-11T16:36:10.591Z,101048.00
2018-11-11T16:38:13.822Z,101045.00
2018-11-11T16:40:18.295Z,101043.00
2018-11-11T16:42:21.790Z,101037.00
2018-11-11T16:44:25.066Z,101033.00
2018-11-11T16:46:28.253Z,101031.00
2018-11-11T16:48:31.464Z,101031.00
2018-11-11T16:50:35.446Z,101041.00
2018-11-11T16:52:39.766Z,101043.00
2018-11-11T16:54:43.074Z,101043.00
2018-11-11T16:56:46.229Z,101042.00
2018-11-11T16:58:49.547Z,101039.00
2018-11-11T17:00:52.993Z,101041.00
2018-11-11T17:02:57.003Z,101040.00
2018-11-11T17:05:00.107Z,101047.00
2018-11-11T17:07:03.295Z,101047.00
2018-11-11T17:09:10.222Z,101048.00
2018-11-11T17:11:13.388Z,101047.00
2018-11-11T17:13:16.564Z,101049.00
2018-11-11T17:15:21.153Z,101045.00
2018-11-11T17:17:24.257Z,101051.00
2018-11-11T17:19:27.508Z,101041.00
2018-11-11T17:21:30.756Z,101041.00
2018-11-11T17:23:33.738Z,101047.00
2018-11-11T17:25:36.963Z,101057.00
2018-11-11T17:27:40.159Z,101050.00
2018-11-11T17:29:43.327Z,101053.00
2018-11-11T17:31:47.044Z,101052.00
2018-11-11T17:33:50.199Z,101054.00
2018-11-11T17:35:53.384Z,101055.00
2018-11-11T17:37:56.736Z,101059.00
2018-11-11T17:40:00.245Z,101058.00
2018-11-11T17:42:03.427Z,101056.00
2018-11-11T17:44:07.045Z,101062.00
2018-11-11T17:46:10.354Z,101066.00
2018-11-11T17:48:13.689Z,101079.00
2018-11-11T17:50:20.943Z,101084.00
2018-11-11T17:52:24.104Z,101088.00
2018-11-11T17:54:27.609Z,101087.00
2018-11-11T17:56:30.804Z,101094.00
2018-11-11T17:58:33.954Z,101093.00
2018-11-11T18:00:37.227Z,101094.00
2018-11-11T18:02:40.494Z,101102.00
2018-11-11T18:04:43.713Z,101105.00
2018-11-11T18:06:46.986Z,101109.00
2018-11-11T18:08:50.160Z,101103.00
2018-11-11T18:10:53.344Z,101105.00
2018-11-11T18:12:56.461Z,101111.00
2018-11-11T18:14:59.673Z,101114.00
2018-11-11T18:17:02.917Z,101116.00
2018-11-11T18:19:06.141Z,101108.00
2018-11-11T18:21:09.389Z,101105.00
2018-11-11T18:23:12.671Z,101103.00
2018-11-11T18:25:15.898Z,101096.00
2018-11-11T18:27:19.150Z,101091.00
2018-11-11T18:29:22.294Z,101097.00
2018-11-11T18:31:25.459Z,101097.00
2018-11-11T18:33:28.667Z,101100.00
2018-11-11T18:35:31.847Z,101114.00
2018-11-11T18:37:35.149Z,101120.00
2018-11-11T18:39:38.401Z,101118.00
2018-11-11T18:41:41.982Z,101122.00
2018-11-11T18:43:45.303Z,101129.00
2018-11-11T18:45:48.667Z,101134.00
2018-11-11T18:47:52.081Z,101136.00
2018-11-11T18:49:55.532Z,101123.00
2018-11-11T18:51:58.741Z,101130.00
2018-11-11T18:54:01.985Z,101136.00
2018-11-11T18:56:05.642Z,101135.00
2018-11-11T18:58:08.745Z,101132.00
2018-11-11T19:00:15.841Z,101133.00
2018-11-11T19:02:19.172Z,101129.00
2018-11-11T19:04:22.388Z,101129.00
2018-11-11T19:06:25.558Z,101131.00
2018-11-11T19:08:29.051Z,101130.00
2018-11-11T19:10:33.011Z,101135.00
2018-11-11T19:12:36.067Z,101134.00
2018-11-11T19:14:39.264Z,101137.00
2018-11-11T19:16:42.417Z,101138.00
2018-11-11T19:18:45.717Z,101136.00
2018-11-11T19:20:48.863Z,101128.00
2018-11-11T19:22:52.053Z,101123.00
2018-11-11T19:24:55.227Z,101123.00
2018-11-11T19:26:58.475Z,101122.00
2018-11-11T19:29:02.114Z,101122.00
2018-11-11T19:31:05.407Z,101126.00
2018-11-11T19:33:08.553Z,101125.00
2018-11-11T19:35:12.758Z,101121.00
2018-11-11T19:37:15.958Z,101118.00
2018-11-11T19:39:19.152Z,101119.00
2018-11-11T19:41:22.306Z,101134.00
2018-11-11T19:43:25.484Z,101137.00
2018-11-11T19:45:29.452Z,101125.00
2018-11-11T19:47:32.681Z,101122.00
2018-11-11T19:49:35.810Z,101122.00
2018-11-11T19:51:39.057Z,101126.00
2018-11-11T19:53:42.312Z,101118.00
2018-11-11T19:55:45.572Z,101123.00
2018-11-11T19:57:48.855Z,101127.00
2018-11-11T19:59:52.177Z,101130.00
2018-11-11T20:01:55.314Z,101137.00
2018-11-11T20:03:58.527Z,101137.00
2018-11-11T20:06:01.686Z,101137.00
2018-11-11T20:08:04.998Z,101129.00
2018-11-11T20:10:10.244Z,101131.00
2018-11-11T20:12:13.474Z,101137.00
2018-11-11T20:14:16.655Z,101140.00
2018-11-11T20:16:19.976Z,101130.00
2018-11-11T20:18:23.121Z,101138.00
2018-11-11T20:20:28.107Z,101141.00
2018-11-11T20:22:31.361Z,101151.00
2018-11-11T20:24:34.522Z,101150.00
2018-11-11T20:26:37.755Z,101156.00
2018-11-11T20:28:40.916Z,101156.00
2018-11-11T20:30:44.044Z,101160.00
2018-11-11T20:32:47.358Z,101159.00
2018-11-11T20:34:50.579Z,101169.00
2018-11-11T20:36:53.775Z,101161.00
2018-11-11T20:38:57.072Z,101170.00
2018-11-11T20:41:00.368Z,101171.00
2018-11-11T20:43:03.578Z,101178.00
2018-11-11T20:45:08.303Z,101188.00
2018-11-11T20:47:11.479Z,101191.00
2018-11-11T20:49:14.947Z,101190.00
2018-11-11T20:51:18.104Z,101189.00
2018-11-11T20:53:21.291Z,101187.00
2018-11-11T20:55:24.913Z,101184.00
2018-11-11T20:57:28.245Z,101186.00
2018-11-11T20:59:31.419Z,101191.00
2018-11-11T21:01:34.623Z,101178.00
2018-11-11T21:03:38.276Z,101177.00
2018-11-11T21:05:41.477Z,101186.00
2018-11-11T21:07:44.928Z,101188.00
2018-11-11T21:09:48.084Z,101198.00
2018-11-11T21:11:51.259Z,101202.00
2018-11-11T21:13:54.475Z,101205.00
2018-11-11T21:15:57.645Z,101203.00
2018-11-11T21:18:00.936Z,101184.00
2018-11-11T21:20:06.128Z,101180.00
2018-11-11T21:22:13.000Z,101193.00
2018-11-11T21:24:16.342Z,101178.00
2018-11-11T21:26:19.499Z,101188.00
2018-11-11T21:28:22.688Z,101189.00
2018-11-11T21:30:27.080Z,101186.00
2018-11-11T21:32:30.321Z,101185.00
2018-11-11T21:34:34.085Z,101188.00
2018-11-11T21:36:37.417Z,101188.00
2018-11-11T21:38:40.688Z,101183.00
2018-11-11T21:40:43.906Z,101178.00
2018-11-11T21:42:48.060Z,101185.00
2018-11-11T21:44:51.283Z,101162.00
2018-11-11T21:46:54.433Z,101156.00
2018-11-11T21:48:57.609Z,101154.00
2018-11-11T21:51:00.820Z,101156.00
2018-11-11T21:53:28.027Z,101179.00
2018-11-11T21:55:31.207Z,101185.00
2018-11-11T21:57:34.496Z,101172.00
2018-11-11T21:59:37.772Z,101173.00
2018-11-11T22:01:40.945Z,101187.00
2018-11-11T22:03:44.103Z,101178.00
2018-11-11T22:05:47.336Z,101190.00
2018-11-11T22:07:50.586Z,101177.00
2018-11-11T22:09:53.821Z,101192.00
2018-11-11T22:11:57.001Z,101204.00
2018-11-11T22:14:00.198Z,101203.00
2018-11-11T22:16:03.510Z,101191.00
2018-11-11T22:18:06.649Z,101205.00
2018-11-11T22:20:10.487Z,101223.00
2018-11-11T22:22:13.662Z,101221.00
2018-11-11T22:24:16.791Z,101233.00
2018-11-11T22:26:20.251Z,101231.00
2018-11-11T22:28:23.423Z,101230.00
2018-11-11T22:30:26.587Z,101231.00
2018-11-11T22:32:29.825Z,101230.00
2018-11-11T22:34:33.106Z,101227.00
2018-11-11T22:36:36.266Z,101231.00
2018-11-11T22:38:39.520Z,101247.00
2018-11-11T22:40:42.661Z,101263.00
2018-11-11T22:42:45.852Z,101273.00
2018-11-11T22:44:49.055Z,101275.00
2018-11-11T22:46:52.266Z,101271.00
2018-11-11T22:48:55.464Z,101271.00
2018-11-11T22:50:59.017Z,101275.00
2018-11-11T22:53:02.224Z,101282.00
2018-11-11T22:55:06.223Z,101280.00
2018-11-11T22:57:09.423Z,101287.00
2018-11-11T22:59:12.606Z,101297.00
2018-11-11T23:01:19.330Z,101295.00
2018-11-11T23:03:22.653Z,101286.00
2018-11-11T23:05:25.970Z,101288.00
2018-11-11T23:07:29.118Z,101294.00
2018-11-11T23:09:32.396Z,101294.00
2018-11-11T23:11:35.549Z,101284.00
2018-11-11T23:13:38.896Z,101284.00
2018-11-11T23:15:42.081Z,101287.00
2018-11-11T23:17:45.323Z,101286.00
2018-11-11T23:19:48.802Z,101286.00
2018-11-11T23:21:51.947Z,101291.00
2018-11-11T23:23:55.125Z,101293.00
2018-11-11T23:25:58.301Z,101294.00
2018-11-11T23:28:01.428Z,101289.00
2018-11-11T23:30:08.109Z,101287.00
2018-11-11T23:32:11.242Z,101283.00
2018-11-11T23:34:14.357Z,101276.00